sensor_id;sensor_type;location;lat;lon;timestamp;P1;durP1;ratioP1;P2;durP2;ratioP2
9960;SDS011;5021;51.506;11.320;2023-03-15T00:01:18;6.10;;;3.50;;
9960;SDS011;5021;51.506;11.320;2023-03-15T00:03:45;5.03;;;3.57;;
9960;SDS011;5021;51.506;11.320;2023-03-15T00:06:12;8.20;;;3.40;;
9960;SDS011;5021;51.506;11.320;2023-03-15T00:08:38;8.03;;;3.50;;
9960;SDS011;5021;51.506;11.320;2023-03-15T00:11:04;7.17;;;4.03;;
9960;SDS011;5021;51.506;11.320;2023-03-15T00:13:31;10.90;;;3.90;;
9960;SDS011;5021;51.506;11.320;2023-03-15T00:15:58;6.77;;;4.20;;
9960;SDS011;5021;51.506;11.320;2023-03-15T00:18:24;6.60;;;4.50;;
9960;SDS011;5021;51.506;11.320;2023-03-15T00:20:51;8.57;;;4.20;;
9960;SDS011;5021;51.506;11.320;2023-03-15T00:23:17;8.27;;;4.20;;
9960;SDS011;5021;51.506;11.320;2023-03-15T00:25:43;7.60;;;4.33;;
9960;SDS011;5021;51.506;11.320;2023-03-15T00:28:09;8.93;;;4.30;;
9960;SDS011;5021;51.506;11.320;2023-03-15T00:30:35;8.77;;;3.53;;
9960;SDS011;5021;51.506;11.320;2023-03-15T00:33:01;6.97;;;3.70;;
9960;SDS011;5021;51.506;11.320;2023-03-15T00:35:29;6.97;;;3.73;;
9960;SDS011;5021;51.506;11.320;2023-03-15T00:37:55;8.63;;;3.50;;
9960;SDS011;5021;51.506;11.320;2023-03-15T00:40:22;10.67;;;3.77;;
9960;SDS011;5021;51.506;11.320;2023-03-15T00:42:48;8.33;;;3.63;;
9960;SDS011;5021;51.506;11.320;2023-03-15T00:45:14;7.87;;;3.50;;
9960;SDS011;5021;51.506;11.320;2023-03-15T00:47:41;9.93;;;3.33;;
9960;SDS011;5021;51.506;11.320;2023-03-15T00:50:07;5.20;;;3.17;;
9960;SDS011;5021;51.506;11.320;2023-03-15T00:52:36;4.73;;;3.33;;
9960;SDS011;5021;51.506;11.320;2023-03-15T00:55:02;7.50;;;3.00;;
9960;SDS011;5021;51.506;11.320;2023-03-15T00:57:28;7.07;;;3.40;;
9960;SDS011;5021;51.506;11.320;2023-03-15T00:59:54;8.97;;;3.20;;
9960;SDS011;5021;51.506;11.320;2023-03-15T01:02:20;6.00;;;2.83;;
9960;SDS011;5021;51.506;11.320;2023-03-15T01:04:47;7.77;;;3.10;;
9960;SDS011;5021;51.506;11.320;2023-03-15T01:07:13;6.37;;;3.10;;
9960;SDS011;5021;51.506;11.320;2023-03-15T01:09:39;6.30;;;3.00;;
9960;SDS011;5021;51.506;11.320;2023-03-15T01:12:06;6.10;;;3.23;;
9960;SDS011;5021;51.506;11.320;2023-03-15T01:14:32;5.53;;;3.13;;
9960;SDS011;5021;51.506;11.320;2023-03-15T01:17:01;5.87;;;3.57;;
9960;SDS011;5021;51.506;11.320;2023-03-15T01:19:26;8.87;;;3.87;;
9960;SDS011;5021;51.506;11.320;2023-03-15T01:21:52;6.37;;;3.13;;
9960;SDS011;5021;51.506;11.320;2023-03-15T01:24:18;4.63;;;3.13;;
9960;SDS011;5021;51.506;11.320;2023-03-15T01:26:44;4.87;;;3.17;;
9960;SDS011;5021;51.506;11.320;2023-03-15T01:29:10;8.57;;;3.70;;
9960;SDS011;5021;51.506;11.320;2023-03-15T01:31:37;7.53;;;3.37;;
9960;SDS011;5021;51.506;11.320;2023-03-15T01:34:03;6.93;;;3.27;;
9960;SDS011;5021;51.506;11.320;2023-03-15T01:36:29;7.00;;;3.17;;
9960;SDS011;5021;51.506;11.320;2023-03-15T01:38:55;11.77;;;3.50;;
9960;SDS011;5021;51.506;11.320;2023-03-15T01:41:21;6.80;;;3.50;;
9960;SDS011;5021;51.506;11.320;2023-03-15T01:43:48;11.43;;;5.47;;
9960;SDS011;5021;51.506;11.320;2023-03-15T01:48:59;8.37;;;4.17;;
9960;SDS011;5021;51.506;11.320;2023-03-15T01:51:38;7.30;;;3.40;;
9960;SDS011;5021;51.506;11.320;2023-03-15T01:54:08;8.77;;;4.03;;
9960;SDS011;5021;51.506;11.320;2023-03-15T01:56:35;11.33;;;4.30;;
9960;SDS011;5021;51.506;11.320;2023-03-15T01:59:03;6.53;;;3.33;;
9960;SDS011;5021;51.506;11.320;2023-03-15T02:01:30;7.83;;;3.53;;
9960;SDS011;5021;51.506;11.320;2023-03-15T02:04:00;6.33;;;3.50;;
9960;SDS011;5021;51.506;11.320;2023-03-15T02:06:27;5.97;;;3.00;;
9960;SDS011;5021;51.506;11.320;2023-03-15T02:08:59;7.07;;;3.50;;
9960;SDS011;5021;51.506;11.320;2023-03-15T02:11:26;9.77;;;3.70;;
9960;SDS011;5021;51.506;11.320;2023-03-15T02:13:53;7.03;;;3.43;;
9960;SDS011;5021;51.506;11.320;2023-03-15T02:16:19;12.37;;;5.30;;
9960;SDS011;5021;51.506;11.320;2023-03-15T02:18:46;9.50;;;3.67;;
9960;SDS011;5021;51.506;11.320;2023-03-15T02:23:44;11.80;;;3.83;;
9960;SDS011;5021;51.506;11.320;2023-03-15T02:26:23;5.77;;;3.43;;
9960;SDS011;5021;51.506;11.320;2023-03-15T02:28:50;10.93;;;3.43;;
9960;SDS011;5021;51.506;11.320;2023-03-15T02:31:17;5.90;;;3.33;;
9960;SDS011;5021;51.506;11.320;2023-03-15T02:33:45;8.77;;;3.90;;
9960;SDS011;5021;51.506;11.320;2023-03-15T02:36:16;9.90;;;3.40;;
9960;SDS011;5021;51.506;11.320;2023-03-15T02:38:42;6.60;;;3.20;;
9960;SDS011;5021;51.506;11.320;2023-03-15T02:41:08;7.13;;;3.63;;
9960;SDS011;5021;51.506;11.320;2023-03-15T02:43:34;9.83;;;3.70;;
9960;SDS011;5021;51.506;11.320;2023-03-15T02:46:00;10.97;;;3.40;;
9960;SDS011;5021;51.506;11.320;2023-03-15T02:48:27;7.90;;;3.27;;
9960;SDS011;5021;51.506;11.320;2023-03-15T02:50:53;4.73;;;3.60;;
9960;SDS011;5021;51.506;11.320;2023-03-15T02:53:19;11.23;;;3.13;;
9960;SDS011;5021;51.506;11.320;2023-03-15T02:55:45;6.53;;;3.33;;
9960;SDS011;5021;51.506;11.320;2023-03-15T02:58:11;6.30;;;2.87;;
9960;SDS011;5021;51.506;11.320;2023-03-15T03:00:37;9.13;;;3.57;;
9960;SDS011;5021;51.506;11.320;2023-03-15T03:03:03;8.57;;;3.07;;
9960;SDS011;5021;51.506;11.320;2023-03-15T03:05:29;11.93;;;3.43;;
9960;SDS011;5021;51.506;11.320;2023-03-15T03:07:55;6.73;;;2.90;;
9960;SDS011;5021;51.506;11.320;2023-03-15T03:10:22;5.73;;;3.20;;
9960;SDS011;5021;51.506;11.320;2023-03-15T03:12:48;6.40;;;3.37;;
9960;SDS011;5021;51.506;11.320;2023-03-15T03:15:18;6.17;;;3.30;;
9960;SDS011;5021;51.506;11.320;2023-03-15T03:17:44;9.63;;;3.60;;
9960;SDS011;5021;51.506;11.320;2023-03-15T03:20:11;6.70;;;3.40;;
9960;SDS011;5021;51.506;11.320;2023-03-15T03:22:37;10.33;;;3.67;;
9960;SDS011;5021;51.506;11.320;2023-03-15T03:25:04;4.57;;;3.67;;
9960;SDS011;5021;51.506;11.320;2023-03-15T03:27:31;7.33;;;3.53;;
9960;SDS011;5021;51.506;11.320;2023-03-15T03:30:00;7.57;;;4.30;;
9960;SDS011;5021;51.506;11.320;2023-03-15T03:32:26;8.50;;;3.70;;
9960;SDS011;5021;51.506;11.320;2023-03-15T03:34:52;8.97;;;3.63;;
9960;SDS011;5021;51.506;11.320;2023-03-15T03:37:18;9.27;;;3.37;;
9960;SDS011;5021;51.506;11.320;2023-03-15T03:39:45;5.40;;;3.13;;
9960;SDS011;5021;51.506;11.320;2023-03-15T03:42:11;7.40;;;3.70;;
9960;SDS011;5021;51.506;11.320;2023-03-15T03:44:36;8.57;;;3.57;;
9960;SDS011;5021;51.506;11.320;2023-03-15T03:47:02;12.63;;;3.30;;
9960;SDS011;5021;51.506;11.320;2023-03-15T03:49:28;5.57;;;3.37;;
9960;SDS011;5021;51.506;11.320;2023-03-15T03:51:54;5.63;;;3.37;;
9960;SDS011;5021;51.506;11.320;2023-03-15T03:54:20;7.83;;;3.43;;
9960;SDS011;5021;51.506;11.320;2023-03-15T03:56:46;4.43;;;3.00;;
9960;SDS011;5021;51.506;11.320;2023-03-15T03:59:13;8.90;;;3.17;;
9960;SDS011;5021;51.506;11.320;2023-03-15T04:01:39;10.03;;;3.50;;
9960;SDS011;5021;51.506;11.320;2023-03-15T04:04:06;9.63;;;4.50;;
9960;SDS011;5021;51.506;11.320;2023-03-15T04:06:32;10.70;;;5.27;;
9960;SDS011;5021;51.506;11.320;2023-03-15T04:08:58;9.57;;;4.40;;
9960;SDS011;5021;51.506;11.320;2023-03-15T04:11:23;9.47;;;4.50;;
9960;SDS011;5021;51.506;11.320;2023-03-15T04:13:51;7.33;;;3.70;;
9960;SDS011;5021;51.506;11.320;2023-03-15T04:16:17;9.00;;;4.60;;
9960;SDS011;5021;51.506;11.320;2023-03-15T04:18:43;9.30;;;4.60;;
9960;SDS011;5021;51.506;11.320;2023-03-15T04:21:09;9.33;;;5.20;;
9960;SDS011;5021;51.506;11.320;2023-03-15T04:23:36;7.37;;;4.23;;
9960;SDS011;5021;51.506;11.320;2023-03-15T04:26:02;9.20;;;4.80;;
9960;SDS011;5021;51.506;11.320;2023-03-15T04:28:29;9.27;;;4.23;;
9960;SDS011;5021;51.506;11.320;2023-03-15T04:30:55;12.80;;;4.43;;
9960;SDS011;5021;51.506;11.320;2023-03-15T04:33:22;13.10;;;4.43;;
9960;SDS011;5021;51.506;11.320;2023-03-15T04:35:48;7.17;;;3.67;;
9960;SDS011;5021;51.506;11.320;2023-03-15T04:38:16;11.03;;;4.43;;
9960;SDS011;5021;51.506;11.320;2023-03-15T04:40:42;11.47;;;3.97;;
9960;SDS011;5021;51.506;11.320;2023-03-15T04:43:08;7.37;;;4.10;;
9960;SDS011;5021;51.506;11.320;2023-03-15T04:45:34;8.37;;;4.10;;
9960;SDS011;5021;51.506;11.320;2023-03-15T04:48:00;7.70;;;3.83;;
9960;SDS011;5021;51.506;11.320;2023-03-15T04:50:27;6.97;;;3.83;;
9960;SDS011;5021;51.506;11.320;2023-03-15T04:52:53;8.20;;;4.33;;
9960;SDS011;5021;51.506;11.320;2023-03-15T04:55:19;10.77;;;4.47;;
9960;SDS011;5021;51.506;11.320;2023-03-15T04:57:45;8.73;;;3.60;;
9960;SDS011;5021;51.506;11.320;2023-03-15T05:00:11;9.27;;;4.37;;
9960;SDS011;5021;51.506;11.320;2023-03-15T05:02:38;8.00;;;3.80;;
9960;SDS011;5021;51.506;11.320;2023-03-15T05:05:09;8.47;;;3.73;;
9960;SDS011;5021;51.506;11.320;2023-03-15T05:07:35;9.80;;;3.70;;
9960;SDS011;5021;51.506;11.320;2023-03-15T05:10:02;9.10;;;3.40;;
9960;SDS011;5021;51.506;11.320;2023-03-15T05:12:28;7.27;;;3.50;;
9960;SDS011;5021;51.506;11.320;2023-03-15T05:14:54;5.93;;;3.00;;
9960;SDS011;5021;51.506;11.320;2023-03-15T05:17:20;6.20;;;2.97;;
9960;SDS011;5021;51.506;11.320;2023-03-15T05:19:46;8.47;;;3.57;;
9960;SDS011;5021;51.506;11.320;2023-03-15T05:22:12;6.37;;;3.10;;
9960;SDS011;5021;51.506;11.320;2023-03-15T05:24:38;7.50;;;2.70;;
9960;SDS011;5021;51.506;11.320;2023-03-15T05:27:04;6.73;;;3.13;;
9960;SDS011;5021;51.506;11.320;2023-03-15T05:29:30;4.67;;;2.80;;
9960;SDS011;5021;51.506;11.320;2023-03-15T05:31:56;9.07;;;2.97;;
9960;SDS011;5021;51.506;11.320;2023-03-15T05:34:22;9.47;;;3.13;;
9960;SDS011;5021;51.506;11.320;2023-03-15T05:36:51;11.00;;;3.10;;
9960;SDS011;5021;51.506;11.320;2023-03-15T05:39:32;6.60;;;2.93;;
9960;SDS011;5021;51.506;11.320;2023-03-15T05:41:58;7.53;;;3.70;;
9960;SDS011;5021;51.506;11.320;2023-03-15T05:44:25;7.40;;;3.67;;
9960;SDS011;5021;51.506;11.320;2023-03-15T05:46:51;6.90;;;3.10;;
9960;SDS011;5021;51.506;11.320;2023-03-15T05:49:17;7.20;;;2.97;;
9960;SDS011;5021;51.506;11.320;2023-03-15T05:51:43;9.90;;;3.43;;
9960;SDS011;5021;51.506;11.320;2023-03-15T05:54:09;6.03;;;3.17;;
9960;SDS011;5021;51.506;11.320;2023-03-15T05:56:35;11.60;;;3.50;;
9960;SDS011;5021;51.506;11.320;2023-03-15T05:59:01;9.83;;;3.50;;
9960;SDS011;5021;51.506;11.320;2023-03-15T06:01:28;10.00;;;3.30;;
9960;SDS011;5021;51.506;11.320;2023-03-15T06:03:54;8.30;;;3.17;;
9960;SDS011;5021;51.506;11.320;2023-03-15T06:06:20;7.53;;;3.00;;
9960;SDS011;5021;51.506;11.320;2023-03-15T06:08:46;4.90;;;3.07;;
9960;SDS011;5021;51.506;11.320;2023-03-15T06:11:12;9.23;;;3.73;;
9960;SDS011;5021;51.506;11.320;2023-03-15T06:13:37;9.07;;;3.43;;
9960;SDS011;5021;51.506;11.320;2023-03-15T06:16:03;8.00;;;4.10;;
9960;SDS011;5021;51.506;11.320;2023-03-15T06:18:29;9.17;;;3.53;;
9960;SDS011;5021;51.506;11.320;2023-03-15T06:20:55;10.10;;;3.70;;
9960;SDS011;5021;51.506;11.320;2023-03-15T06:23:21;7.27;;;3.80;;
9960;SDS011;5021;51.506;11.320;2023-03-15T06:25:47;14.73;;;3.93;;
9960;SDS011;5021;51.506;11.320;2023-03-15T06:28:13;8.33;;;4.27;;
9960;SDS011;5021;51.506;11.320;2023-03-15T06:30:39;13.47;;;4.20;;
9960;SDS011;5021;51.506;11.320;2023-03-15T06:33:05;10.77;;;4.80;;
9960;SDS011;5021;51.506;11.320;2023-03-15T06:35:31;9.87;;;5.30;;
9960;SDS011;5021;51.506;11.320;2023-03-15T06:37:57;10.10;;;4.67;;
9960;SDS011;5021;51.506;11.320;2023-03-15T06:40:23;10.53;;;4.67;;
9960;SDS011;5021;51.506;11.320;2023-03-15T06:42:49;14.23;;;4.37;;
9960;SDS011;5021;51.506;11.320;2023-03-15T06:45:15;8.33;;;4.60;;
9960;SDS011;5021;51.506;11.320;2023-03-15T06:47:40;8.47;;;3.97;;
9960;SDS011;5021;51.506;11.320;2023-03-15T06:50:07;8.43;;;3.97;;
9960;SDS011;5021;51.506;11.320;2023-03-15T06:52:33;9.37;;;4.83;;
9960;SDS011;5021;51.506;11.320;2023-03-15T06:54:58;9.90;;;4.60;;
9960;SDS011;5021;51.506;11.320;2023-03-15T06:57:24;10.70;;;4.60;;
9960;SDS011;5021;51.506;11.320;2023-03-15T06:59:50;8.13;;;4.07;;
9960;SDS011;5021;51.506;11.320;2023-03-15T07:02:18;9.17;;;4.20;;
9960;SDS011;5021;51.506;11.320;2023-03-15T07:04:44;8.30;;;4.20;;
9960;SDS011;5021;51.506;11.320;2023-03-15T07:07:11;8.23;;;4.03;;
9960;SDS011;5021;51.506;11.320;2023-03-15T07:09:37;10.47;;;4.07;;
9960;SDS011;5021;51.506;11.320;2023-03-15T07:12:03;8.63;;;4.53;;
9960;SDS011;5021;51.506;11.320;2023-03-15T07:14:29;10.30;;;4.80;;
9960;SDS011;5021;51.506;11.320;2023-03-15T07:16:55;7.63;;;3.90;;
9960;SDS011;5021;51.506;11.320;2023-03-15T07:19:21;7.60;;;4.40;;
9960;SDS011;5021;51.506;11.320;2023-03-15T07:21:47;6.20;;;4.20;;
9960;SDS011;5021;51.506;11.320;2023-03-15T07:24:13;10.67;;;4.83;;
9960;SDS011;5021;51.506;11.320;2023-03-15T07:26:39;9.03;;;4.93;;
9960;SDS011;5021;51.506;11.320;2023-03-15T07:29:05;14.73;;;5.13;;
9960;SDS011;5021;51.506;11.320;2023-03-15T07:31:31;14.70;;;5.67;;
9960;SDS011;5021;51.506;11.320;2023-03-15T07:33:57;11.50;;;5.70;;
9960;SDS011;5021;51.506;11.320;2023-03-15T07:36:22;7.20;;;4.67;;
9960;SDS011;5021;51.506;11.320;2023-03-15T07:38:48;8.43;;;4.13;;
9960;SDS011;5021;51.506;11.320;2023-03-15T07:41:14;9.40;;;4.57;;
9960;SDS011;5021;51.506;11.320;2023-03-15T07:43:40;8.33;;;5.07;;
9960;SDS011;5021;51.506;11.320;2023-03-15T07:46:06;11.70;;;4.80;;
9960;SDS011;5021;51.506;11.320;2023-03-15T07:48:32;12.50;;;4.47;;
9960;SDS011;5021;51.506;11.320;2023-03-15T07:50:58;7.30;;;4.20;;
9960;SDS011;5021;51.506;11.320;2023-03-15T07:53:24;11.33;;;5.80;;
9960;SDS011;5021;51.506;11.320;2023-03-15T07:55:50;8.47;;;4.70;;
9960;SDS011;5021;51.506;11.320;2023-03-15T07:58:16;11.47;;;4.60;;
9960;SDS011;5021;51.506;11.320;2023-03-15T08:00:42;8.10;;;4.10;;
9960;SDS011;5021;51.506;11.320;2023-03-15T08:03:08;11.40;;;4.13;;
9960;SDS011;5021;51.506;11.320;2023-03-15T08:05:34;10.63;;;4.30;;
9960;SDS011;5021;51.506;11.320;2023-03-15T08:08:00;7.90;;;4.10;;
9960;SDS011;5021;51.506;11.320;2023-03-15T08:10:26;9.03;;;4.40;;
9960;SDS011;5021;51.506;11.320;2023-03-15T08:12:52;7.80;;;4.63;;
9960;SDS011;5021;51.506;11.320;2023-03-15T08:15:18;10.40;;;4.07;;
9960;SDS011;5021;51.506;11.320;2023-03-15T08:17:45;8.40;;;4.33;;
9960;SDS011;5021;51.506;11.320;2023-03-15T08:20:12;7.67;;;4.13;;
9960;SDS011;5021;51.506;11.320;2023-03-15T08:22:44;5.73;;;4.07;;
9960;SDS011;5021;51.506;11.320;2023-03-15T08:25:11;10.07;;;4.60;;
9960;SDS011;5021;51.506;11.320;2023-03-15T08:27:38;8.67;;;4.27;;
9960;SDS011;5021;51.506;11.320;2023-03-15T08:30:04;5.43;;;3.70;;
9960;SDS011;5021;51.506;11.320;2023-03-15T08:32:30;5.90;;;4.00;;
9960;SDS011;5021;51.506;11.320;2023-03-15T08:34:56;7.33;;;4.10;;
9960;SDS011;5021;51.506;11.320;2023-03-15T08:37:22;8.87;;;4.47;;
9960;SDS011;5021;51.506;11.320;2023-03-15T08:39:49;8.00;;;4.00;;
9960;SDS011;5021;51.506;11.320;2023-03-15T08:42:25;9.63;;;4.30;;
9960;SDS011;5021;51.506;11.320;2023-03-15T08:44:51;5.83;;;4.07;;
9960;SDS011;5021;51.506;11.320;2023-03-15T08:47:17;9.17;;;4.40;;
9960;SDS011;5021;51.506;11.320;2023-03-15T08:49:43;8.13;;;5.63;;
9960;SDS011;5021;51.506;11.320;2023-03-15T08:52:09;11.40;;;7.13;;
9960;SDS011;5021;51.506;11.320;2023-03-15T08:54:35;11.10;;;5.50;;
9960;SDS011;5021;51.506;11.320;2023-03-15T08:57:00;6.90;;;5.03;;
9960;SDS011;5021;51.506;11.320;2023-03-15T08:59:26;8.80;;;4.13;;
9960;SDS011;5021;51.506;11.320;2023-03-15T09:01:52;8.60;;;4.67;;
9960;SDS011;5021;51.506;11.320;2023-03-15T09:04:18;5.53;;;3.37;;
9960;SDS011;5021;51.506;11.320;2023-03-15T09:06:45;6.13;;;2.97;;
9960;SDS011;5021;51.506;11.320;2023-03-15T09:09:11;2.27;;;1.97;;
9960;SDS011;5021;51.506;11.320;2023-03-15T09:11:41;4.20;;;2.27;;
9960;SDS011;5021;51.506;11.320;2023-03-15T09:14:07;3.80;;;2.40;;
9960;SDS011;5021;51.506;11.320;2023-03-15T09:16:33;3.57;;;2.20;;
9960;SDS011;5021;51.506;11.320;2023-03-15T09:18:59;2.97;;;1.70;;
9960;SDS011;5021;51.506;11.320;2023-03-15T09:21:25;3.60;;;1.80;;
9960;SDS011;5021;51.506;11.320;2023-03-15T09:23:52;2.73;;;1.70;;
9960;SDS011;5021;51.506;11.320;2023-03-15T09:26:18;3.80;;;1.80;;
9960;SDS011;5021;51.506;11.320;2023-03-15T09:28:44;4.00;;;2.30;;
9960;SDS011;5021;51.506;11.320;2023-03-15T09:31:10;2.77;;;1.77;;
9960;SDS011;5021;51.506;11.320;2023-03-15T09:33:36;4.53;;;1.83;;
9960;SDS011;5021;51.506;11.320;2023-03-15T09:36:02;3.97;;;1.63;;
9960;SDS011;5021;51.506;11.320;2023-03-15T09:38:28;3.17;;;1.80;;
9960;SDS011;5021;51.506;11.320;2023-03-15T09:40:57;3.60;;;1.87;;
9960;SDS011;5021;51.506;11.320;2023-03-15T09:46:22;3.97;;;1.90;;
9960;SDS011;5021;51.506;11.320;2023-03-15T09:48:55;1.60;;;1.47;;
9960;SDS011;5021;51.506;11.320;2023-03-15T09:51:27;1.53;;;1.43;;
9960;SDS011;5021;51.506;11.320;2023-03-15T09:54:10;2.13;;;1.40;;
9960;SDS011;5021;51.506;11.320;2023-03-15T09:56:38;1.80;;;1.53;;
9960;SDS011;5021;51.506;11.320;2023-03-15T09:59:04;4.03;;;1.83;;
9960;SDS011;5021;51.506;11.320;2023-03-15T10:01:34;1.33;;;1.23;;
9960;SDS011;5021;51.506;11.320;2023-03-15T10:04:03;3.03;;;1.47;;
9960;SDS011;5021;51.506;11.320;2023-03-15T10:06:31;2.33;;;1.73;;
9960;SDS011;5021;51.506;11.320;2023-03-15T10:09:02;1.67;;;1.57;;
9960;SDS011;5021;51.506;11.320;2023-03-15T10:11:33;1.47;;;1.30;;
9960;SDS011;5021;51.506;11.320;2023-03-15T10:14:04;1.80;;;1.50;;
9960;SDS011;5021;51.506;11.320;2023-03-15T10:19:13;2.07;;;1.47;;
9960;SDS011;5021;51.506;11.320;2023-03-15T10:24:19;1.93;;;1.30;;
9960;SDS011;5021;51.506;11.320;2023-03-15T10:26:46;1.80;;;1.23;;
9960;SDS011;5021;51.506;11.320;2023-03-15T10:29:14;2.33;;;1.50;;
9960;SDS011;5021;51.506;11.320;2023-03-15T10:31:41;2.47;;;1.50;;
9960;SDS011;5021;51.506;11.320;2023-03-15T10:34:10;1.93;;;1.53;;
9960;SDS011;5021;51.506;11.320;2023-03-15T10:36:36;1.30;;;1.20;;
9960;SDS011;5021;51.506;11.320;2023-03-15T10:39:02;1.67;;;1.30;;
9960;SDS011;5021;51.506;11.320;2023-03-15T10:41:42;1.60;;;1.50;;
9960;SDS011;5021;51.506;11.320;2023-03-15T10:44:16;3.77;;;1.50;;
9960;SDS011;5021;51.506;11.320;2023-03-15T10:46:57;1.30;;;1.20;;
9960;SDS011;5021;51.506;11.320;2023-03-15T10:49:27;1.87;;;1.40;;
9960;SDS011;5021;51.506;11.320;2023-03-15T10:51:58;1.30;;;1.20;;
9960;SDS011;5021;51.506;11.320;2023-03-15T10:54:24;1.73;;;1.40;;
9960;SDS011;5021;51.506;11.320;2023-03-15T10:59:35;4.07;;;3.07;;
9960;SDS011;5021;51.506;11.320;2023-03-15T11:04:43;4.90;;;3.40;;
9960;SDS011;5021;51.506;11.320;2023-03-15T11:07:11;2.53;;;1.50;;
9960;SDS011;5021;51.506;11.320;2023-03-15T11:12:05;1.63;;;1.40;;
9960;SDS011;5021;51.506;11.320;2023-03-15T11:14:36;2.97;;;1.43;;
9960;SDS011;5021;51.506;11.320;2023-03-15T11:17:03;2.90;;;2.00;;
9960;SDS011;5021;51.506;11.320;2023-03-15T11:19:30;2.17;;;1.77;;
9960;SDS011;5021;51.506;11.320;2023-03-15T11:21:57;3.40;;;1.60;;
9960;SDS011;5021;51.506;11.320;2023-03-15T11:24:26;1.90;;;1.33;;
9960;SDS011;5021;51.506;11.320;2023-03-15T11:26:53;2.70;;;1.80;;
9960;SDS011;5021;51.506;11.320;2023-03-15T11:29:24;1.67;;;1.37;;
9960;SDS011;5021;51.506;11.320;2023-03-15T11:31:52;3.27;;;1.80;;
9960;SDS011;5021;51.506;11.320;2023-03-15T11:34:36;2.57;;;1.27;;
9960;SDS011;5021;51.506;11.320;2023-03-15T11:37:04;1.37;;;1.27;;
9960;SDS011;5021;51.506;11.320;2023-03-15T11:39:33;2.80;;;1.70;;
9960;SDS011;5021;51.506;11.320;2023-03-15T11:42:02;2.63;;;1.53;;
9960;SDS011;5021;51.506;11.320;2023-03-15T11:44:38;3.00;;;1.93;;
9960;SDS011;5021;51.506;11.320;2023-03-15T11:47:19;2.30;;;1.90;;
9960;SDS011;5021;51.506;11.320;2023-03-15T11:49:49;2.10;;;1.80;;
9960;SDS011;5021;51.506;11.320;2023-03-15T11:52:16;3.90;;;1.77;;
9960;SDS011;5021;51.506;11.320;2023-03-15T11:54:42;4.77;;;2.00;;
9960;SDS011;5021;51.506;11.320;2023-03-15T12:00:13;2.67;;;2.07;;
9960;SDS011;5021;51.506;11.320;2023-03-15T12:02:58;3.33;;;1.77;;
9960;SDS011;5021;51.506;11.320;2023-03-15T12:08:15;5.50;;;1.70;;
9960;SDS011;5021;51.506;11.320;2023-03-15T12:10:42;3.03;;;2.30;;
9960;SDS011;5021;51.506;11.320;2023-03-15T12:13:30;1.70;;;1.60;;
9960;SDS011;5021;51.506;11.320;2023-03-15T12:15:56;2.37;;;1.40;;
9960;SDS011;5021;51.506;11.320;2023-03-15T12:18:32;3.50;;;1.73;;
9960;SDS011;5021;51.506;11.320;2023-03-15T12:21:07;2.03;;;1.40;;
9960;SDS011;5021;51.506;11.320;2023-03-15T12:23:38;4.47;;;1.77;;
9960;SDS011;5021;51.506;11.320;2023-03-15T12:26:06;1.47;;;1.37;;
9960;SDS011;5021;51.506;11.320;2023-03-15T12:28:35;1.90;;;1.30;;
9960;SDS011;5021;51.506;11.320;2023-03-15T12:31:03;1.70;;;1.47;;
9960;SDS011;5021;51.506;11.320;2023-03-15T12:33:30;2.33;;;1.60;;
9960;SDS011;5021;51.506;11.320;2023-03-15T12:36:00;3.50;;;1.80;;
9960;SDS011;5021;51.506;11.320;2023-03-15T12:38:34;1.87;;;1.60;;
9960;SDS011;5021;51.506;11.320;2023-03-15T12:41:01;2.73;;;1.40;;
9960;SDS011;5021;51.506;11.320;2023-03-15T12:43:38;2.47;;;1.60;;
9960;SDS011;5021;51.506;11.320;2023-03-15T12:46:05;2.93;;;1.80;;
9960;SDS011;5021;51.506;11.320;2023-03-15T12:48:31;2.03;;;1.57;;
9960;SDS011;5021;51.506;11.320;2023-03-15T12:50:59;2.93;;;1.73;;
9960;SDS011;5021;51.506;11.320;2023-03-15T12:58:50;3.03;;;1.73;;
9960;SDS011;5021;51.506;11.320;2023-03-15T13:01:17;2.30;;;1.70;;
9960;SDS011;5021;51.506;11.320;2023-03-15T13:03:43;3.53;;;1.53;;
9960;SDS011;5021;51.506;11.320;2023-03-15T13:08:59;4.37;;;2.00;;
9960;SDS011;5021;51.506;11.320;2023-03-15T13:19:23;4.17;;;2.30;;
9960;SDS011;5021;51.506;11.320;2023-03-15T13:21:59;5.80;;;2.30;;
9960;SDS011;5021;51.506;11.320;2023-03-15T13:24:34;4.27;;;1.70;;
9960;SDS011;5021;51.506;11.320;2023-03-15T13:27:02;3.07;;;1.83;;
9960;SDS011;5021;51.506;11.320;2023-03-15T13:29:31;3.07;;;1.60;;
9960;SDS011;5021;51.506;11.320;2023-03-15T13:32:16;4.13;;;1.77;;
9960;SDS011;5021;51.506;11.320;2023-03-15T13:34:44;4.10;;;1.77;;
9960;SDS011;5021;51.506;11.320;2023-03-15T13:37:21;3.53;;;1.70;;
9960;SDS011;5021;51.506;11.320;2023-03-15T13:39:59;2.37;;;1.50;;
9960;SDS011;5021;51.506;11.320;2023-03-15T13:42:26;2.20;;;1.70;;
9960;SDS011;5021;51.506;11.320;2023-03-15T13:45:12;4.00;;;1.80;;
9960;SDS011;5021;51.506;11.320;2023-03-15T13:47:42;2.73;;;1.53;;
9960;SDS011;5021;51.506;11.320;2023-03-15T13:50:12;2.83;;;1.60;;
9960;SDS011;5021;51.506;11.320;2023-03-15T13:52:40;5.70;;;1.70;;
9960;SDS011;5021;51.506;11.320;2023-03-15T13:55:06;5.27;;;1.90;;
9960;SDS011;5021;51.506;11.320;2023-03-15T13:57:33;6.17;;;1.90;;
9960;SDS011;5021;51.506;11.320;2023-03-15T14:00:03;3.23;;;1.60;;
9960;SDS011;5021;51.506;11.320;2023-03-15T14:02:36;5.77;;;1.50;;
9960;SDS011;5021;51.506;11.320;2023-03-15T14:05:07;3.00;;;1.93;;
9960;SDS011;5021;51.506;11.320;2023-03-15T14:07:35;2.90;;;2.07;;
9960;SDS011;5021;51.506;11.320;2023-03-15T14:12:46;3.53;;;1.80;;
9960;SDS011;5021;51.506;11.320;2023-03-15T14:15:13;4.67;;;2.13;;
9960;SDS011;5021;51.506;11.320;2023-03-15T14:17:49;2.50;;;1.47;;
9960;SDS011;5021;51.506;11.320;2023-03-15T14:20:15;4.07;;;1.90;;
9960;SDS011;5021;51.506;11.320;2023-03-15T14:22:41;2.87;;;1.40;;
9960;SDS011;5021;51.506;11.320;2023-03-15T14:25:19;3.50;;;1.50;;
9960;SDS011;5021;51.506;11.320;2023-03-15T14:27:46;2.20;;;1.70;;
9960;SDS011;5021;51.506;11.320;2023-03-15T14:30:19;4.80;;;1.83;;
9960;SDS011;5021;51.506;11.320;2023-03-15T14:32:50;3.10;;;1.70;;
9960;SDS011;5021;51.506;11.320;2023-03-15T14:35:24;3.20;;;2.23;;
9960;SDS011;5021;51.506;11.320;2023-03-15T14:40:33;4.50;;;2.23;;
9960;SDS011;5021;51.506;11.320;2023-03-15T14:43:00;4.90;;;1.93;;
9960;SDS011;5021;51.506;11.320;2023-03-15T14:45:26;3.20;;;1.80;;
9960;SDS011;5021;51.506;11.320;2023-03-15T14:48:23;2.83;;;1.60;;
9960;SDS011;5021;51.506;11.320;2023-03-15T14:50:42;4.90;;;2.87;;
9960;SDS011;5021;51.506;11.320;2023-03-15T14:53:12;2.27;;;1.73;;
9960;SDS011;5021;51.506;11.320;2023-03-15T14:55:39;4.40;;;1.70;;
9960;SDS011;5021;51.506;11.320;2023-03-15T14:58:15;1.90;;;1.40;;
9960;SDS011;5021;51.506;11.320;2023-03-15T15:00:41;1.87;;;1.30;;
9960;SDS011;5021;51.506;11.320;2023-03-15T15:03:16;2.27;;;1.33;;
9960;SDS011;5021;51.506;11.320;2023-03-15T15:05:42;1.70;;;1.30;;
9960;SDS011;5021;51.506;11.320;2023-03-15T15:08:12;2.23;;;1.60;;
9960;SDS011;5021;51.506;11.320;2023-03-15T15:10:39;2.00;;;1.10;;
9960;SDS011;5021;51.506;11.320;2023-03-15T15:13:06;2.57;;;1.30;;
9960;SDS011;5021;51.506;11.320;2023-03-15T15:15:32;3.00;;;1.40;;
9960;SDS011;5021;51.506;11.320;2023-03-15T15:17:58;4.70;;;1.67;;
9960;SDS011;5021;51.506;11.320;2023-03-15T15:20:24;1.97;;;1.30;;
9960;SDS011;5021;51.506;11.320;2023-03-15T15:22:49;3.53;;;1.83;;
9960;SDS011;5021;51.506;11.320;2023-03-15T15:25:17;2.00;;;1.20;;
9960;SDS011;5021;51.506;11.320;2023-03-15T15:27:43;3.43;;;1.67;;
9960;SDS011;5021;51.506;11.320;2023-03-15T15:30:13;3.30;;;1.60;;
9960;SDS011;5021;51.506;11.320;2023-03-15T15:32:39;4.43;;;1.77;;
9960;SDS011;5021;51.506;11.320;2023-03-15T15:35:06;3.43;;;1.50;;
9960;SDS011;5021;51.506;11.320;2023-03-15T15:37:32;3.13;;;1.37;;
9960;SDS011;5021;51.506;11.320;2023-03-15T15:39:58;2.83;;;1.67;;
9960;SDS011;5021;51.506;11.320;2023-03-15T15:42:24;3.03;;;1.60;;
9960;SDS011;5021;51.506;11.320;2023-03-15T15:44:50;3.53;;;1.50;;
9960;SDS011;5021;51.506;11.320;2023-03-15T15:47:16;3.07;;;1.70;;
9960;SDS011;5021;51.506;11.320;2023-03-15T15:49:42;5.33;;;1.60;;
9960;SDS011;5021;51.506;11.320;2023-03-15T15:52:10;2.17;;;1.57;;